createdAt,value
2018-08-11T00:01:43.029Z,14.10
2018-08-11T00:04:11.626Z,14.10
2018-08-11T00:06:40.715Z,14.10
2018-08-11T00:09:10.521Z,14.00
2018-08-11T00:11:39.442Z,14.00
2018-08-11T00:14:08.057Z,13.90
2018-08-11T00:16:36.675Z,13.90
2018-08-11T00:19:05.462Z,13.90
2018-08-11T00:21:34.181Z,13.90
2018-08-11T00:24:02.942Z,13.90
2018-08-11T00:26:31.540Z,13.90
2018-08-11T00:29:00.161Z,13.80
2018-08-11T00:31:28.913Z,13.80
2018-08-11T00:33:57.588Z,13.70
2018-08-11T00:36:26.527Z,13.70
2018-08-11T00:38:55.092Z,13.70
2018-08-11T00:41:23.861Z,13.70
2018-08-11T00:43:52.485Z,13.70
2018-08-11T00:46:21.269Z,13.70
2018-08-11T00:48:49.900Z,13.60
2018-08-11T00:51:18.512Z,13.60
2018-08-11T00:53:47.197Z,13.50
2018-08-11T00:56:15.899Z,13.60
2018-08-11T00:58:44.535Z,13.50
2018-08-11T01:01:13.246Z,13.60
2018-08-11T01:03:41.837Z,13.50
2018-08-11T01:06:10.391Z,13.50
2018-08-11T01:08:39.037Z,13.40
2018-08-11T01:11:07.881Z,13.40
2018-08-11T01:13:36.664Z,13.40
2018-08-11T01:16:05.297Z,13.40
2018-08-11T01:18:33.961Z,13.30
2018-08-11T01:21:02.686Z,13.30
2018-08-11T01:23:31.309Z,13.20
2018-08-11T01:25:59.870Z,13.20
2018-08-11T01:28:28.517Z,13.20
2018-08-11T01:30:57.178Z,13.20
2018-08-11T01:33:25.769Z,13.10
2018-08-11T01:35:54.396Z,13.00
2018-08-11T01:38:23.029Z,13.00
2018-08-11T01:40:51.589Z,13.10
2018-08-11T01:43:20.274Z,13.10
2018-08-11T01:45:48.980Z,13.00
2018-08-11T01:48:18.126Z,13.00
2018-08-11T01:50:46.785Z,13.00
2018-08-11T01:53:15.397Z,12.90
2018-08-11T01:55:44.017Z,12.90
2018-08-11T01:58:12.633Z,12.90
2018-08-11T02:00:41.313Z,12.90
2018-08-11T02:03:09.951Z,12.90
2018-08-11T02:05:38.638Z,12.80
2018-08-11T02:08:07.646Z,12.80
2018-08-11T02:10:36.218Z,12.80
2018-08-11T02:13:04.924Z,12.80
2018-08-11T02:15:34.530Z,12.70
2018-08-11T02:18:03.104Z,12.70
2018-08-11T02:20:31.686Z,12.70
2018-08-11T02:23:00.339Z,12.70
2018-08-11T02:25:29.021Z,12.70
2018-08-11T02:27:57.637Z,12.70
2018-08-11T02:30:26.708Z,12.60
2018-08-11T02:32:55.329Z,12.70
2018-08-11T02:35:23.997Z,12.70
2018-08-11T02:37:53.319Z,12.60
2018-08-11T02:40:21.995Z,12.60
2018-08-11T02:42:50.646Z,12.50
2018-08-11T02:45:19.309Z,12.50
2018-08-11T02:47:48.255Z,12.50
2018-08-11T02:50:16.864Z,12.50
2018-08-11T02:52:45.529Z,12.50
2018-08-11T02:55:14.246Z,12.50
2018-08-11T02:57:42.927Z,12.50
2018-08-11T03:00:12.794Z,12.40
2018-08-11T03:02:41.501Z,12.40
2018-08-11T03:05:10.123Z,12.30
2018-08-11T03:07:39.075Z,12.30
2018-08-11T03:10:09.447Z,12.30
2018-08-11T03:12:38.985Z,12.30
2018-08-11T03:15:09.584Z,12.30
2018-08-11T03:17:38.837Z,12.20
2018-08-11T03:20:10.282Z,12.20
2018-08-11T03:22:38.870Z,12.20
2018-08-11T03:25:08.598Z,12.20
2018-08-11T03:27:37.246Z,12.30
2018-08-11T03:30:06.785Z,12.40
2018-08-11T03:32:35.639Z,12.40
2018-08-11T03:35:04.575Z,12.30
2018-08-11T03:37:33.434Z,12.30
2018-08-11T03:40:02.038Z,12.20
2018-08-11T03:42:31.416Z,12.20
2018-08-11T03:45:00.707Z,12.20
2018-08-11T03:47:29.886Z,12.20
2018-08-11T03:49:58.625Z,12.10
2018-08-11T03:52:27.357Z,12.10
2018-08-11T03:54:55.976Z,12.10
2018-08-11T03:57:25.020Z,12.10
2018-08-11T03:59:53.931Z,12.00
2018-08-11T04:02:22.977Z,12.00
2018-08-11T04:04:51.906Z,12.00
2018-08-11T04:07:20.786Z,12.00
2018-08-11T04:09:49.702Z,12.00
2018-08-11T04:12:18.604Z,12.00
2018-08-11T04:14:47.540Z,12.00
2018-08-11T04:17:16.553Z,12.00
2018-08-11T04:19:45.589Z,12.00
2018-08-11T04:22:14.587Z,12.00
2018-08-11T04:24:43.580Z,12.00
2018-08-11T04:27:12.728Z,12.00
2018-08-11T04:29:41.742Z,11.90
2018-08-11T04:32:12.040Z,11.90
2018-08-11T04:34:41.236Z,11.90
2018-08-11T04:37:11.348Z,11.90
2018-08-11T04:39:40.496Z,11.90
2018-08-11T04:42:09.580Z,11.90
2018-08-11T04:44:38.665Z,11.90
2018-08-11T04:47:07.728Z,11.90
2018-08-11T04:49:36.884Z,11.90
2018-08-11T04:52:06.343Z,11.90
2018-08-11T04:54:35.281Z,11.90
2018-08-11T04:57:04.206Z,11.90
2018-08-11T04:59:33.212Z,12.00
2018-08-11T05:02:02.312Z,12.00
2018-08-11T05:04:31.447Z,12.00
2018-08-11T05:07:00.449Z,12.10
2018-08-11T05:09:29.410Z,12.10
2018-08-11T05:11:58.324Z,12.10
2018-08-11T05:14:27.300Z,12.10
2018-08-11T05:16:56.211Z,12.20
2018-08-11T05:19:25.198Z,12.30
2018-08-11T05:21:54.130Z,12.50
2018-08-11T05:24:23.151Z,12.60
2018-08-11T05:26:52.024Z,12.70
2018-08-11T05:29:21.164Z,13.00
2018-08-11T05:31:50.744Z,13.00
2018-08-11T05:34:19.885Z,13.20
2018-08-11T05:36:48.866Z,13.30
2018-08-11T05:39:18.356Z,13.50
2018-08-11T05:41:47.888Z,13.60
2018-08-11T05:44:17.191Z,13.60
2018-08-11T05:46:46.386Z,13.70
2018-08-11T05:49:15.641Z,13.70
2018-08-11T05:51:45.193Z,13.70
2018-08-11T05:54:14.663Z,13.80
2018-08-11T05:56:44.998Z,14.10
2018-08-11T05:59:14.320Z,14.30
2018-08-11T06:01:46.692Z,14.50
2018-08-11T06:04:15.834Z,14.60
2018-08-11T06:06:45.328Z,14.70
2018-08-11T06:09:14.695Z,14.70
2018-08-11T06:11:51.269Z,14.80
2018-08-11T06:14:21.145Z,15.00
2018-08-11T06:16:50.837Z,15.00
2018-08-11T06:19:20.190Z,15.00
2018-08-11T06:21:50.532Z,15.10
2018-08-11T06:24:19.975Z,15.20
2018-08-11T06:26:49.287Z,15.40
2018-08-11T06:29:18.457Z,15.50
2018-08-11T06:31:47.719Z,15.60
2018-08-11T06:34:17.424Z,15.60
2018-08-11T06:39:33.639Z,15.80
2018-08-11T06:42:02.908Z,15.90
2018-08-11T06:44:33.354Z,16.00
2018-08-11T06:47:03.226Z,16.10
2018-08-11T06:49:32.790Z,16.20
2018-08-11T06:52:02.181Z,16.30
2018-08-11T06:54:33.024Z,16.40
2018-08-11T06:57:02.404Z,16.50
2018-08-11T06:59:32.441Z,16.70
2018-08-11T07:04:42.205Z,17.10
2018-08-11T07:07:11.357Z,17.10
2018-08-11T07:09:40.931Z,17.20
2018-08-11T07:12:10.203Z,17.20
2018-08-11T07:14:39.372Z,17.20
2018-08-11T07:17:09.217Z,17.20
2018-08-11T07:19:38.248Z,17.30
2018-08-11T07:22:07.377Z,17.10
2018-08-11T07:24:36.339Z,17.30
2018-08-11T07:27:05.680Z,17.70
2018-08-11T07:29:34.862Z,17.60
2018-08-11T07:32:03.986Z,18.10
2018-08-11T07:34:32.885Z,18.60
2018-08-11T07:37:02.287Z,19.20
2018-08-11T07:39:31.280Z,19.90
2018-08-11T07:42:00.504Z,20.80
2018-08-11T07:44:29.979Z,21.10
2018-08-11T07:47:00.001Z,21.70
2018-08-11T07:49:29.478Z,22.90
2018-08-11T07:51:58.766Z,24.00
2018-08-11T07:54:35.120Z,24.20
2018-08-11T07:57:04.546Z,24.60
2018-08-11T07:59:36.536Z,25.30
2018-08-11T08:02:06.442Z,26.20
2018-08-11T08:04:36.162Z,27.10
2018-08-11T08:07:05.337Z,26.10
2018-08-11T08:09:34.494Z,26.60
2018-08-11T08:12:03.511Z,27.90
2018-08-11T08:14:32.544Z,27.60
2018-08-11T08:17:01.667Z,26.80
2018-08-11T08:19:30.769Z,27.00
2018-08-11T08:21:59.831Z,27.00
2018-08-11T08:24:28.700Z,26.80
2018-08-11T08:26:57.584Z,25.50
2018-08-11T08:29:28.676Z,24.80
2018-08-11T08:31:59.078Z,24.80
2018-08-11T08:34:29.277Z,25.70
2018-08-11T08:37:02.490Z,26.00
2018-08-11T08:39:31.893Z,25.60
2018-08-11T08:42:01.199Z,26.30
2018-08-11T08:44:30.568Z,26.50
2018-08-11T08:51:33.922Z,26.40
2018-08-11T08:54:03.214Z,27.60
2018-08-11T08:56:32.710Z,27.90
2018-08-11T08:59:02.959Z,28.00
2018-08-11T09:01:43.515Z,26.80
2018-08-11T09:04:13.121Z,26.70
2018-08-11T09:06:42.306Z,26.70
2018-08-11T09:09:12.407Z,27.30
2018-08-11T09:11:42.543Z,27.70
2018-08-11T09:14:11.743Z,28.50
2018-08-11T09:16:41.754Z,28.30
2018-08-11T09:19:11.059Z,28.80
2018-08-11T09:21:40.885Z,28.00
2018-08-11T09:24:10.371Z,28.50
2018-08-11T09:26:39.791Z,27.70
2018-08-11T09:29:09.310Z,28.50
2018-08-11T09:31:38.416Z,29.50
2018-08-11T09:34:07.327Z,27.90
2018-08-11T09:36:36.557Z,29.10
2018-08-11T09:39:09.038Z,30.30
2018-08-11T09:41:38.035Z,28.80
2018-08-11T09:44:07.542Z,29.20
2018-08-11T09:46:36.596Z,30.10
2018-08-11T09:49:05.466Z,30.40
2018-08-11T09:51:34.725Z,29.70
2018-08-11T09:54:04.118Z,30.10
2018-08-11T09:56:32.962Z,30.40
2018-08-11T09:59:02.049Z,29.90
2018-08-11T10:01:36.520Z,30.00
2018-08-11T10:04:05.496Z,30.10
2018-08-11T10:06:34.253Z,30.10
2018-08-11T10:09:03.257Z,30.10
2018-08-11T10:11:32.195Z,30.20
2018-08-11T10:14:01.067Z,30.00
2018-08-11T10:16:30.071Z,29.70
2018-08-11T10:18:58.882Z,29.60
2018-08-11T10:21:27.884Z,29.40
2018-08-11T10:23:56.688Z,28.20
2018-08-11T10:26:25.847Z,28.40
2018-08-11T10:28:54.755Z,28.90
2018-08-11T10:31:23.496Z,29.10
2018-08-11T10:33:52.191Z,29.20
2018-08-11T10:36:20.969Z,28.60
2018-08-11T10:38:49.953Z,28.50
2018-08-11T10:41:18.939Z,27.90
2018-08-11T10:43:47.698Z,28.10
2018-08-11T10:46:16.824Z,28.30
2018-08-11T10:48:45.776Z,28.70
2018-08-11T10:51:14.651Z,28.70
2018-08-11T10:53:43.762Z,28.30
2018-08-11T10:56:12.595Z,28.40
2018-08-11T10:58:41.510Z,28.10
2018-08-11T11:01:10.298Z,28.10
2018-08-11T11:03:38.963Z,28.10
2018-08-11T11:06:07.794Z,28.00
2018-08-11T11:08:36.581Z,27.80
2018-08-11T11:11:05.523Z,27.90
2018-08-11T11:13:35.178Z,27.40
2018-08-11T11:16:04.277Z,28.00
2018-08-11T11:18:33.376Z,28.10
2018-08-11T11:21:02.884Z,26.50
2018-08-11T11:23:31.788Z,26.60
2018-08-11T11:26:04.494Z,26.60
2018-08-11T11:28:43.865Z,27.40
2018-08-11T11:34:33.934Z,27.70
2018-08-11T11:37:03.231Z,27.40
2018-08-11T11:39:32.381Z,27.40
2018-08-11T11:42:01.518Z,27.30
2018-08-11T11:44:30.665Z,27.30
2018-08-11T11:46:59.635Z,27.40
2018-08-11T11:49:28.838Z,27.50
2018-08-11T11:51:58.529Z,27.00
2018-08-11T11:54:27.424Z,27.20
2018-08-11T11:56:56.781Z,27.20
2018-08-11T11:59:25.644Z,27.40
2018-08-11T12:01:54.630Z,27.50
2018-08-11T12:04:23.541Z,27.70
2018-08-11T12:06:53.312Z,27.80
2018-08-11T12:09:22.197Z,28.00
2018-08-11T12:11:50.914Z,27.70
2018-08-11T12:14:19.928Z,27.90
2018-08-11T12:16:48.892Z,27.40
2018-08-11T12:19:18.090Z,27.70
2018-08-11T12:21:46.866Z,28.10
2018-08-11T12:24:15.938Z,28.00
2018-08-11T12:26:44.697Z,28.00
2018-08-11T12:29:19.477Z,28.40
2018-08-11T12:31:48.421Z,28.30
2018-08-11T12:34:17.352Z,27.70
2018-08-11T12:36:46.154Z,27.80
2018-08-11T12:39:15.077Z,28.30
2018-08-11T12:41:44.256Z,28.20
2018-08-11T12:44:13.002Z,27.70
2018-08-11T12:46:41.702Z,27.80
2018-08-11T12:49:10.788Z,27.70
2018-08-11T12:51:40.176Z,27.80
2018-08-11T12:54:08.975Z,27.80
2018-08-11T12:56:39.538Z,27.90
2018-08-11T12:59:08.222Z,27.90
2018-08-11T13:01:36.865Z,27.40
2018-08-11T13:04:05.690Z,27.60
2018-08-11T13:06:34.669Z,27.20
2018-08-11T13:09:03.556Z,27.50
2018-08-11T13:11:32.344Z,27.50
2018-08-11T13:14:01.709Z,27.60
2018-08-11T13:16:30.550Z,27.70
2018-08-11T13:18:59.316Z,27.80
2018-08-11T13:21:28.132Z,27.90
2018-08-11T13:23:56.761Z,28.20
2018-08-11T13:26:32.054Z,28.40
2018-08-11T13:29:00.986Z,28.00
2018-08-11T13:31:29.970Z,26.80
2018-08-11T13:33:58.708Z,27.20
2018-08-11T13:36:27.401Z,27.40
2018-08-11T13:38:56.300Z,27.90
2018-08-11T13:41:25.796Z,28.10
2018-08-11T13:43:54.597Z,27.70
2018-08-11T13:46:23.352Z,27.70
2018-08-11T13:48:52.133Z,27.80
2018-08-11T13:51:20.727Z,28.00
2018-08-11T13:53:49.446Z,28.00
2018-08-11T13:56:18.720Z,27.70
2018-08-11T13:58:47.680Z,27.20
2018-08-11T14:01:16.447Z,27.40
2018-08-11T14:03:45.125Z,27.70
2018-08-11T14:06:13.925Z,28.10
2018-08-11T14:08:42.813Z,28.00
2018-08-11T14:11:11.546Z,27.70
2018-08-11T14:13:40.274Z,28.00
2018-08-11T14:16:08.921Z,28.30
2018-08-11T14:18:37.586Z,28.50
2018-08-11T14:21:06.467Z,28.70
2018-08-11T14:23:35.089Z,28.30
2018-08-11T14:26:04.068Z,28.40
2018-08-11T14:28:32.656Z,28.60
2018-08-11T14:31:01.382Z,28.80
2018-08-11T14:33:30.059Z,28.80
2018-08-11T14:35:59.525Z,28.90
2018-08-11T14:38:28.157Z,28.90
2018-08-11T14:40:57.374Z,28.60
2018-08-11T14:43:26.140Z,29.00
2018-08-11T14:45:54.966Z,29.00
2018-08-11T14:48:24.257Z,29.00
2018-08-11T14:50:52.808Z,28.60
2018-08-11T14:53:21.706Z,28.60
2018-08-11T14:55:51.018Z,28.60
2018-08-11T14:58:19.640Z,28.50
2018-08-11T15:00:48.378Z,28.80
2018-08-11T15:03:17.094Z,28.90
2018-08-11T15:05:45.811Z,28.50
2018-08-11T15:08:14.406Z,28.40
2018-08-11T15:10:43.132Z,28.30
2018-08-11T15:13:11.963Z,28.30
2018-08-11T15:15:40.765Z,27.50
2018-08-11T15:18:09.599Z,26.80
2018-08-11T15:20:38.478Z,26.80
2018-08-11T15:23:07.297Z,26.90
2018-08-11T15:25:36.164Z,26.70
2018-08-11T15:28:05.114Z,26.70
2018-08-11T15:30:34.007Z,26.80
2018-08-11T15:33:02.789Z,27.10
2018-08-11T15:35:31.545Z,27.00
2018-08-11T15:38:00.311Z,26.90
2018-08-11T15:40:29.003Z,27.10
2018-08-11T15:42:57.742Z,27.20
2018-08-11T15:45:26.662Z,27.30
2018-08-11T15:47:55.419Z,27.00
2018-08-11T15:50:24.250Z,26.90
2018-08-11T15:52:53.178Z,26.80
2018-08-11T15:55:22.036Z,27.00
2018-08-11T15:57:50.915Z,26.90
2018-08-11T16:00:19.889Z,26.60
2018-08-11T16:02:48.577Z,26.20
2018-08-11T16:05:17.750Z,26.10
2018-08-11T16:07:46.652Z,25.30
2018-08-11T16:10:15.764Z,25.10
2018-08-11T16:12:44.665Z,25.20
2018-08-11T16:15:13.795Z,25.30
2018-08-11T16:17:42.856Z,25.30
2018-08-11T16:20:11.583Z,25.10
2018-08-11T16:22:40.217Z,25.20
2018-08-11T16:25:09.110Z,25.30
2018-08-11T16:27:38.902Z,25.40
2018-08-11T16:30:10.144Z,25.40
2018-08-11T16:32:40.866Z,25.30
2018-08-11T16:35:10.824Z,25.20
2018-08-11T16:37:39.436Z,25.10
2018-08-11T16:40:08.436Z,25.00
2018-08-11T16:42:37.814Z,24.90
2018-08-11T16:45:07.156Z,25.00
2018-08-11T16:47:35.864Z,25.00
2018-08-11T16:50:04.989Z,24.90
2018-08-11T16:52:33.730Z,24.80
2018-08-11T16:55:02.764Z,24.70
2018-08-11T16:57:32.121Z,24.70
2018-08-11T17:00:00.950Z,24.30
2018-08-11T17:02:29.844Z,24.10
2018-08-11T17:04:59.388Z,24.20
2018-08-11T17:07:28.435Z,24.20
2018-08-11T17:09:57.151Z,24.10
2018-08-11T17:12:25.953Z,24.00
2018-08-11T17:14:54.627Z,23.70
2018-08-11T17:17:23.329Z,23.50
2018-08-11T17:19:51.988Z,23.60
2018-08-11T17:22:20.701Z,23.70
2018-08-11T17:24:49.545Z,23.60
2018-08-11T17:27:18.481Z,23.60
2018-08-11T17:29:47.496Z,23.50
2018-08-11T17:32:16.757Z,23.20
2018-08-11T17:34:45.484Z,23.10
2018-08-11T17:37:14.288Z,22.90
2018-08-11T17:39:43.441Z,22.70
2018-08-11T17:42:12.279Z,22.80
2018-08-11T17:44:40.968Z,22.70
2018-08-11T17:47:09.741Z,22.80
2018-08-11T17:49:38.839Z,22.90
2018-08-11T17:52:07.551Z,22.70
2018-08-11T17:54:36.937Z,22.60
2018-08-11T17:57:05.731Z,22.40
2018-08-11T17:59:35.126Z,22.50
2018-08-11T18:02:03.904Z,22.50
2018-08-11T18:04:32.752Z,22.50
2018-08-11T18:07:01.649Z,22.50
2018-08-11T18:09:30.427Z,22.40
2018-08-11T18:11:59.243Z,22.20
2018-08-11T18:14:27.973Z,22.30
2018-08-11T18:16:56.614Z,22.30
2018-08-11T18:19:25.595Z,22.30
2018-08-11T18:21:54.311Z,22.10
2018-08-11T18:24:23.114Z,22.10
2018-08-11T18:26:51.814Z,22.00
2018-08-11T18:29:20.643Z,21.90
2018-08-11T18:31:49.348Z,21.90
2018-08-11T18:34:18.608Z,21.70
2018-08-11T18:36:47.230Z,21.60
2018-08-11T18:39:15.923Z,21.20
2018-08-11T18:41:44.738Z,21.30
2018-08-11T18:44:13.333Z,21.30
2018-08-11T18:46:41.905Z,21.20
2018-08-11T18:49:11.777Z,21.10
2018-08-11T18:51:40.344Z,21.00
2018-08-11T18:54:08.984Z,21.00
2018-08-11T18:56:37.552Z,21.00
2018-08-11T18:59:06.324Z,20.90
2018-08-11T19:01:34.953Z,20.80
2018-08-11T19:04:03.481Z,20.80
2018-08-11T19:06:32.072Z,20.70
2018-08-11T19:09:02.153Z,20.70
2018-08-11T19:11:31.026Z,20.60
2018-08-11T19:13:59.625Z,20.50
2018-08-11T19:16:29.176Z,20.40
2018-08-11T19:18:57.729Z,20.30
2018-08-11T19:21:26.261Z,20.10
2018-08-11T19:23:54.841Z,19.90
2018-08-11T19:26:23.428Z,19.90
2018-08-11T19:28:52.169Z,19.90
2018-08-11T19:31:20.708Z,19.90
2018-08-11T19:33:49.908Z,19.70
2018-08-11T19:36:18.482Z,19.60
2018-08-11T19:38:47.128Z,19.50
2018-08-11T19:41:16.385Z,19.50
2018-08-11T19:43:44.933Z,19.60
2018-08-11T19:46:14.105Z,19.50
2018-08-11T19:48:43.240Z,19.50
2018-08-11T19:51:11.877Z,19.40
2018-08-11T19:53:41.965Z,19.30
2018-08-11T19:56:10.534Z,19.20
2018-08-11T19:58:39.702Z,19.10
2018-08-11T20:01:08.440Z,19.00
2018-08-11T20:03:37.056Z,18.90
2018-08-11T20:06:05.812Z,18.90
2018-08-11T20:08:34.570Z,18.80
2018-08-11T20:11:03.092Z,18.70
2018-08-11T20:13:31.640Z,18.70
2018-08-11T20:16:00.295Z,18.60
2018-08-11T20:18:28.925Z,18.50
2018-08-11T20:20:57.462Z,18.40
2018-08-11T20:23:26.010Z,18.30
2018-08-11T20:25:56.057Z,18.20
2018-08-11T20:28:24.701Z,18.10
2018-08-11T20:30:53.258Z,17.90
2018-08-11T20:33:23.747Z,17.80
2018-08-11T20:35:52.296Z,17.70
2018-08-11T20:38:21.533Z,17.60
2018-08-11T20:40:50.134Z,17.50
2018-08-11T20:43:18.676Z,17.50
2018-08-11T20:45:47.241Z,17.30
2018-08-11T20:48:15.757Z,17.20
2018-08-11T20:50:44.408Z,17.20
2018-08-11T20:53:12.970Z,17.20
2018-08-11T20:55:42.100Z,17.10
2018-08-11T20:58:10.682Z,17.00
2018-08-11T21:00:39.222Z,17.00
2018-08-11T21:03:10.336Z,16.90
2018-08-11T21:05:38.914Z,16.90
2018-08-11T21:08:08.502Z,16.90
2018-08-11T21:10:37.067Z,16.80
2018-08-11T21:13:05.961Z,16.80
2018-08-11T21:15:34.485Z,16.70
2018-08-11T21:18:03.040Z,16.70
2018-08-11T21:20:31.578Z,16.60
2018-08-11T21:23:00.126Z,16.60
2018-08-11T21:25:28.853Z,16.50
2018-08-11T21:27:57.412Z,16.40
2018-08-11T21:30:26.042Z,16.40
2018-08-11T21:32:54.581Z,16.30
2018-08-11T21:35:23.189Z,16.30
2018-08-11T21:37:52.358Z,16.20
2018-08-11T21:40:20.941Z,16.10
2018-08-11T21:42:49.444Z,16.00
2018-08-11T21:45:17.981Z,15.90
2018-08-11T21:47:46.600Z,15.90
2018-08-11T21:50:15.128Z,15.90
2018-08-11T21:52:43.885Z,15.80
2018-08-11T21:55:12.432Z,15.80
2018-08-11T21:57:40.985Z,15.80
2018-08-11T22:00:30.481Z,15.70
2018-08-11T22:02:59.669Z,15.70
2018-08-11T22:05:28.464Z,15.60
2018-08-11T22:07:58.209Z,15.50
2018-08-11T22:10:27.164Z,15.60
2018-08-11T22:12:55.772Z,15.50
2018-08-11T22:15:24.381Z,15.40
2018-08-11T22:17:52.909Z,15.40
2018-08-11T22:20:21.466Z,15.40
2018-08-11T22:22:50.020Z,15.40
2018-08-11T22:25:18.584Z,15.20
2018-08-11T22:27:47.222Z,15.20
2018-08-11T22:30:15.826Z,15.20
2018-08-11T22:32:44.352Z,15.20
2018-08-11T22:35:13.208Z,15.20
2018-08-11T22:37:41.802Z,15.10
2018-08-11T22:40:10.336Z,15.10
2018-08-11T22:42:39.389Z,15.10
2018-08-11T22:45:09.570Z,15.00
2018-08-11T22:47:38.636Z,15.00
2018-08-11T22:50:08.944Z,15.00
2018-08-11T22:52:38.027Z,14.90
2018-08-11T22:55:06.995Z,14.90
2018-08-11T22:57:35.799Z,14.90
2018-08-11T23:00:11.535Z,14.90
2018-08-11T23:02:40.083Z,14.80
2018-08-11T23:05:08.720Z,14.80
2018-08-11T23:07:37.489Z,14.70
2018-08-11T23:10:07.833Z,14.70
2018-08-11T23:12:36.434Z,14.60
2018-08-11T23:15:06.697Z,14.60
2018-08-11T23:17:35.225Z,14.60
2018-08-11T23:20:05.011Z,14.60
2018-08-11T23:22:33.680Z,14.60
2018-08-11T23:25:02.249Z,14.50
2018-08-11T23:27:30.844Z,14.50
2018-08-11T23:29:59.344Z,14.40
2018-08-11T23:32:28.017Z,14.40
2018-08-11T23:34:56.748Z,14.30
2018-08-11T23:37:25.301Z,14.30
2018-08-11T23:39:53.853Z,14.30
2018-08-11T23:42:22.415Z,14.20
2018-08-11T23:44:50.968Z,14.20
2018-08-11T23:47:19.500Z,14.10
2018-08-11T23:49:48.159Z,14.10
2018-08-11T23:52:16.718Z,14.00
2018-08-11T23:54:45.225Z,14.00
2018-08-11T23:57:13.818Z,13.90
2018-08-11T23:59:42.416Z,13.90
